createdAt,value
2018-11-11T00:00:29.496Z,8.52
2018-11-11T00:02:57.819Z,8.47
2018-11-11T00:05:26.057Z,8.47
2018-11-11T00:07:54.338Z,8.65
2018-11-11T00:10:22.928Z,8.54
2018-11-11T00:12:51.094Z,8.59
2018-11-11T00:15:19.339Z,8.43
2018-11-11T00:17:48.148Z,8.40
2018-11-11T00:20:16.468Z,8.43
2018-11-11T00:22:44.586Z,8.42
2018-11-11T00:25:13.129Z,8.49
2018-11-11T00:27:41.490Z,8.44
2018-11-11T00:30:14.241Z,8.29
2018-11-11T00:32:42.483Z,8.20
2018-11-11T00:35:10.872Z,8.13
2018-11-11T00:37:39.683Z,8.04
2018-11-11T00:40:08.168Z,7.97
2018-11-11T00:42:36.545Z,8.03
2018-11-11T00:45:05.163Z,8.07
2018-11-11T00:47:33.342Z,8.07
2018-11-11T00:50:01.564Z,7.92
2018-11-11T00:52:29.953Z,7.82
2018-11-11T00:54:58.139Z,7.78
2018-11-11T00:57:26.619Z,7.79
2018-11-11T00:59:54.872Z,7.80
2018-11-11T01:02:23.193Z,7.76
2018-11-11T01:04:51.443Z,7.76
2018-11-11T01:07:19.722Z,7.73
2018-11-11T01:09:48.023Z,7.74
2018-11-11T01:12:16.590Z,7.87
2018-11-11T01:14:44.743Z,7.83
2018-11-11T01:17:13.248Z,7.74
2018-11-11T01:19:41.742Z,7.84
2018-11-11T01:22:09.996Z,7.76
2018-11-11T01:24:38.493Z,7.73
2018-11-11T01:27:07.025Z,7.79
2018-11-11T01:29:35.264Z,7.75
2018-11-11T01:32:03.507Z,7.68
2018-11-11T01:34:31.975Z,7.69
2018-11-11T01:37:00.454Z,7.66
2018-11-11T01:39:28.741Z,7.65
2018-11-11T01:41:57.214Z,7.56
2018-11-11T01:44:25.536Z,7.51
2018-11-11T01:46:53.749Z,7.49
2018-11-11T01:49:22.014Z,7.40
2018-11-11T01:51:50.143Z,7.35
2018-11-11T01:54:18.376Z,7.29
2018-11-11T01:56:46.663Z,7.27
2018-11-11T01:59:15.173Z,7.31
2018-11-11T02:01:43.417Z,7.34
2018-11-11T02:04:11.930Z,7.33
2018-11-11T02:06:40.147Z,7.44
2018-11-11T02:09:09.699Z,7.43
2018-11-11T02:11:37.974Z,7.43
2018-11-11T02:14:06.542Z,7.45
2018-11-11T02:16:34.880Z,7.50
2018-11-11T02:19:03.119Z,7.53
2018-11-11T02:21:31.430Z,7.37
2018-11-11T02:23:59.767Z,7.29
2018-11-11T02:26:28.019Z,7.30
2018-11-11T02:28:56.337Z,7.06
2018-11-11T02:31:24.813Z,7.03
2018-11-11T02:33:53.017Z,7.07
2018-11-11T02:36:21.187Z,6.96
2018-11-11T02:38:49.567Z,6.91
2018-11-11T02:41:17.645Z,6.95
2018-11-11T02:43:45.975Z,6.96
2018-11-11T02:46:14.242Z,6.91
2018-11-11T02:48:42.701Z,7.01
2018-11-11T02:51:10.992Z,6.98
2018-11-11T02:53:39.464Z,6.93
2018-11-11T02:56:07.883Z,6.87
2018-11-11T02:58:36.239Z,6.76
2018-11-11T03:01:04.515Z,6.75
2018-11-11T03:03:32.769Z,6.76
2018-11-11T03:06:01.031Z,6.76
2018-11-11T03:08:28.913Z,6.76
2018-11-11T03:10:57.239Z,6.74
2018-11-11T03:13:25.524Z,6.76
2018-11-11T03:15:53.917Z,6.68
2018-11-11T03:18:22.491Z,6.79
2018-11-11T03:20:50.972Z,6.80
2018-11-11T03:23:18.991Z,6.79
2018-11-11T03:25:47.423Z,6.79
2018-11-11T03:28:15.791Z,6.74
2018-11-11T03:30:44.062Z,6.71
2018-11-11T03:33:12.477Z,6.70
2018-11-11T03:35:41.022Z,6.73
2018-11-11T03:38:09.267Z,6.66
2018-11-11T03:40:37.748Z,6.68
2018-11-11T03:43:06.084Z,6.74
2018-11-11T03:45:34.455Z,6.73
2018-11-11T03:48:02.519Z,6.71
2018-11-11T03:50:30.698Z,6.66
2018-11-11T03:52:58.885Z,6.55
2018-11-11T03:55:27.199Z,6.62
2018-11-11T03:57:55.463Z,6.60
2018-11-11T04:00:23.714Z,6.53
2018-11-11T04:02:51.787Z,6.51
2018-11-11T04:05:20.104Z,6.54
2018-11-11T04:07:48.353Z,6.48
2018-11-11T04:10:18.309Z,6.41
2018-11-11T04:12:47.185Z,6.38
2018-11-11T04:15:16.577Z,6.28
2018-11-11T04:17:44.885Z,6.18
2018-11-11T04:20:15.188Z,6.16
2018-11-11T04:22:43.537Z,6.14
2018-11-11T04:25:12.104Z,6.28
2018-11-11T04:27:40.533Z,6.34
2018-11-11T04:30:09.174Z,6.29
2018-11-11T04:32:37.643Z,6.18
2018-11-11T04:35:06.707Z,6.24
2018-11-11T04:37:34.839Z,6.30
2018-11-11T04:40:03.340Z,6.29
2018-11-11T04:42:31.592Z,6.21
2018-11-11T04:45:00.064Z,6.28
2018-11-11T04:47:28.336Z,6.27
2018-11-11T04:49:56.825Z,6.25
2018-11-11T04:52:25.108Z,6.26
2018-11-11T04:54:53.585Z,6.29
2018-11-11T04:57:21.871Z,6.32
2018-11-11T04:59:50.314Z,6.25
2018-11-11T05:02:18.421Z,6.23
2018-11-11T05:04:46.823Z,6.26
2018-11-11T05:07:15.126Z,6.29
2018-11-11T05:09:43.189Z,6.28
2018-11-11T05:12:11.544Z,6.28
2018-11-11T05:14:39.776Z,6.33
2018-11-11T05:17:08.144Z,6.37
2018-11-11T05:19:36.565Z,6.42
2018-11-11T05:22:05.246Z,6.50
2018-11-11T05:24:33.708Z,6.67
2018-11-11T05:27:02.004Z,6.74
2018-11-11T05:29:30.455Z,6.82
2018-11-11T05:31:58.775Z,7.07
2018-11-11T05:34:27.259Z,7.55
2018-11-11T05:36:55.509Z,7.97
2018-11-11T05:39:23.983Z,8.27
2018-11-11T05:41:52.236Z,8.44
2018-11-11T05:44:20.215Z,8.61
2018-11-11T05:46:48.595Z,8.85
2018-11-11T05:49:16.887Z,8.97
2018-11-11T05:51:45.128Z,9.28
2018-11-11T05:54:13.425Z,9.51
2018-11-11T05:56:42.196Z,9.96
2018-11-11T05:59:10.562Z,10.50
2018-11-11T06:01:38.712Z,11.11
2018-11-11T06:04:06.874Z,11.79
2018-11-11T06:06:35.215Z,12.39
2018-11-11T06:09:04.588Z,13.12
2018-11-11T06:11:33.838Z,13.58
2018-11-11T06:14:02.167Z,14.12
2018-11-11T06:16:30.568Z,14.75
2018-11-11T06:18:58.934Z,15.26
2018-11-11T06:21:27.351Z,15.67
2018-11-11T06:23:55.565Z,15.82
2018-11-11T06:26:23.728Z,16.04
2018-11-11T06:28:51.984Z,16.15
2018-11-11T06:31:20.235Z,16.23
2018-11-11T06:33:48.742Z,16.65
2018-11-11T06:36:16.947Z,16.72
2018-11-11T06:38:45.227Z,16.56
2018-11-11T06:41:13.623Z,16.62
2018-11-11T06:43:41.823Z,16.47
2018-11-11T06:46:10.107Z,16.33
2018-11-11T06:48:38.264Z,16.38
2018-11-11T06:51:06.662Z,16.36
2018-11-11T06:53:34.943Z,16.49
2018-11-11T06:56:03.440Z,16.38
2018-11-11T06:58:31.711Z,16.29
2018-11-11T07:01:00.164Z,16.20
2018-11-11T07:03:39.572Z,15.60
2018-11-11T07:06:07.751Z,15.05
2018-11-11T07:08:36.043Z,15.11
2018-11-11T07:11:04.306Z,14.65
2018-11-11T07:13:32.671Z,14.21
2018-11-11T07:16:01.088Z,14.10
2018-11-11T07:18:29.347Z,14.36
2018-11-11T07:20:57.827Z,14.63
2018-11-11T07:23:26.040Z,14.75
2018-11-11T07:25:54.188Z,14.10
2018-11-11T07:28:22.493Z,13.63
2018-11-11T07:30:50.964Z,13.46
2018-11-11T07:33:19.190Z,13.89
2018-11-11T07:35:47.333Z,14.02
2018-11-11T07:38:15.767Z,14.13
2018-11-11T07:40:44.306Z,14.49
2018-11-11T07:43:12.538Z,14.85
2018-11-11T07:45:41.043Z,15.00
2018-11-11T07:48:09.311Z,14.90
2018-11-11T07:50:37.723Z,15.02
2018-11-11T07:53:05.913Z,15.08
2018-11-11T07:55:34.314Z,15.08
2018-11-11T07:58:02.580Z,15.13
2018-11-11T08:00:30.888Z,15.16
2018-11-11T08:02:59.371Z,15.27
2018-11-11T08:05:27.784Z,15.50
2018-11-11T08:07:56.080Z,15.76
2018-11-11T08:10:35.159Z,15.99
2018-11-11T08:13:03.581Z,15.94
2018-11-11T08:15:31.307Z,15.24
2018-11-11T08:18:05.023Z,15.25
2018-11-11T08:20:33.141Z,15.78
2018-11-11T08:23:01.540Z,15.85
2018-11-11T08:25:29.819Z,16.05
2018-11-11T08:27:58.667Z,16.11
2018-11-11T08:30:26.769Z,16.22
2018-11-11T08:32:54.846Z,16.44
2018-11-11T08:35:23.129Z,16.93
2018-11-11T08:37:51.465Z,16.94
2018-11-11T08:40:19.712Z,16.84
2018-11-11T08:42:48.171Z,17.17
2018-11-11T08:45:16.422Z,16.83
2018-11-11T08:47:45.494Z,17.19
2018-11-11T08:50:13.743Z,17.42
2018-11-11T08:52:42.046Z,17.50
2018-11-11T08:55:10.904Z,17.81
2018-11-11T08:57:39.260Z,18.23
2018-11-11T09:00:11.009Z,18.16
2018-11-11T09:02:39.094Z,18.45
2018-11-11T09:05:07.187Z,18.55
2018-11-11T09:07:35.061Z,19.30
2018-11-11T09:10:02.905Z,19.21
2018-11-11T09:12:30.661Z,18.79
2018-11-11T09:14:58.477Z,18.12
2018-11-11T09:17:26.236Z,17.52
2018-11-11T09:19:54.220Z,17.70
2018-11-11T09:22:22.051Z,17.96
2018-11-11T09:24:49.859Z,17.36
2018-11-11T09:27:17.582Z,17.30
2018-11-11T09:29:45.405Z,18.00
2018-11-11T09:32:13.137Z,18.50
2018-11-11T09:34:40.842Z,18.72
2018-11-11T09:37:08.646Z,18.12
2018-11-11T09:39:36.415Z,18.83
2018-11-11T09:42:04.299Z,17.70
2018-11-11T09:44:32.003Z,17.68
2018-11-11T09:46:59.712Z,17.89
2018-11-11T09:49:27.520Z,18.61
2018-11-11T09:51:55.350Z,19.81
2018-11-11T09:54:23.120Z,19.89
2018-11-11T09:56:50.839Z,19.89
2018-11-11T09:59:18.645Z,19.46
2018-11-11T10:01:46.679Z,19.50
2018-11-11T10:04:21.959Z,19.80
2018-11-11T10:06:55.245Z,20.44
2018-11-11T10:11:35.480Z,19.99
2018-11-11T10:14:09.412Z,19.04
2018-11-11T10:16:46.736Z,19.32
2018-11-11T10:19:21.020Z,20.31
2018-11-11T10:23:57.516Z,19.58
2018-11-11T10:26:35.719Z,19.36
2018-11-11T10:29:11.694Z,19.77
2018-11-11T10:32:16.571Z,19.36
2018-11-11T10:34:49.575Z,19.44
2018-11-11T10:37:21.880Z,19.79
2018-11-11T10:39:54.063Z,19.66
2018-11-11T10:42:27.491Z,19.83
2018-11-11T10:45:02.359Z,19.97
2018-11-11T10:48:05.631Z,19.93
2018-11-11T10:50:37.800Z,20.59
2018-11-11T10:53:05.882Z,21.77
2018-11-11T10:55:34.422Z,21.44
2018-11-11T10:58:02.347Z,20.32
2018-11-11T11:00:35.931Z,20.03
2018-11-11T11:03:08.267Z,20.55
2018-11-11T11:05:36.351Z,20.45
2018-11-11T11:08:04.362Z,20.85
2018-11-11T11:10:32.476Z,20.35
2018-11-11T11:13:00.259Z,20.30
2018-11-11T11:15:28.035Z,20.80
2018-11-11T11:17:55.887Z,20.86
2018-11-11T11:20:23.668Z,20.94
2018-11-11T11:22:51.428Z,20.51
2018-11-11T11:25:19.213Z,20.43
2018-11-11T11:27:46.991Z,20.86
2018-11-11T11:30:14.780Z,19.81
2018-11-11T11:32:42.600Z,20.50
2018-11-11T11:35:10.748Z,20.68
2018-11-11T11:37:39.038Z,21.09
2018-11-11T11:40:07.872Z,20.77
2018-11-11T11:42:35.887Z,19.68
2018-11-11T11:45:03.732Z,19.75
2018-11-11T11:47:31.537Z,20.31
2018-11-11T11:49:59.336Z,20.57
2018-11-11T11:52:27.127Z,20.58
2018-11-11T11:54:54.898Z,20.33
2018-11-11T11:57:22.571Z,20.51
2018-11-11T11:59:50.302Z,20.29
2018-11-11T12:02:18.229Z,20.34
2018-11-11T12:04:46.009Z,20.43
2018-11-11T12:07:13.728Z,20.37
2018-11-11T12:09:41.455Z,20.86
2018-11-11T12:12:09.233Z,21.41
2018-11-11T12:14:37.024Z,22.00
2018-11-11T12:17:05.889Z,20.91
2018-11-11T12:19:33.876Z,20.86
2018-11-11T12:22:01.927Z,21.81
2018-11-11T12:24:29.810Z,20.54
2018-11-11T12:26:57.699Z,20.72
2018-11-11T12:29:25.515Z,21.36
2018-11-11T12:31:53.302Z,21.83
2018-11-11T12:34:21.119Z,20.74
2018-11-11T12:36:48.851Z,20.45
2018-11-11T12:39:16.691Z,20.56
2018-11-11T12:41:44.371Z,20.83
2018-11-11T12:44:12.194Z,21.19
2018-11-11T12:46:40.337Z,21.51
2018-11-11T12:49:08.164Z,20.16
2018-11-11T12:51:35.858Z,20.41
2018-11-11T12:54:03.800Z,21.02
2018-11-11T12:56:31.571Z,21.14
2018-11-11T12:58:59.283Z,21.14
2018-11-11T13:01:27.099Z,21.39
2018-11-11T13:03:54.843Z,21.58
2018-11-11T13:06:22.566Z,21.63
2018-11-11T13:08:50.379Z,21.18
2018-11-11T13:11:18.130Z,21.07
2018-11-11T13:13:45.945Z,20.90
2018-11-11T13:16:13.764Z,20.78
2018-11-11T13:18:41.512Z,20.75
2018-11-11T13:21:09.271Z,20.99
2018-11-11T13:23:37.136Z,20.25
2018-11-11T13:26:05.262Z,20.65
2018-11-11T13:28:32.991Z,20.68
2018-11-11T13:31:00.790Z,21.05
2018-11-11T13:33:28.595Z,20.54
2018-11-11T13:35:56.420Z,20.74
2018-11-11T13:38:24.237Z,20.66
2018-11-11T13:40:52.079Z,20.42
2018-11-11T13:43:19.907Z,20.59
2018-11-11T13:45:47.789Z,20.40
2018-11-11T13:48:15.503Z,20.19
2018-11-11T13:50:43.267Z,20.32
2018-11-11T13:53:11.042Z,20.54
2018-11-11T13:55:38.806Z,20.08
2018-11-11T13:58:06.559Z,19.72
2018-11-11T14:00:34.346Z,19.77
2018-11-11T14:03:02.076Z,20.05
2018-11-11T14:05:29.799Z,19.46
2018-11-11T14:08:04.726Z,19.64
2018-11-11T14:10:32.462Z,19.70
2018-11-11T14:13:00.227Z,19.40
2018-11-11T14:15:28.017Z,19.03
2018-11-11T14:17:56.509Z,19.28
2018-11-11T14:20:25.045Z,19.29
2018-11-11T14:22:53.900Z,19.29
2018-11-11T14:25:25.310Z,19.11
2018-11-11T14:27:53.068Z,18.90
2018-11-11T14:30:24.032Z,18.50
2018-11-11T14:32:52.708Z,18.46
2018-11-11T14:35:20.508Z,18.30
2018-11-11T14:37:48.662Z,18.01
2018-11-11T14:40:20.125Z,17.60
2018-11-11T14:42:47.974Z,17.41
2018-11-11T14:45:16.471Z,17.26
2018-11-11T14:47:45.547Z,17.09
2018-11-11T14:50:14.322Z,16.87
2018-11-11T14:52:43.021Z,16.70
2018-11-11T14:55:17.269Z,16.44
2018-11-11T14:57:45.076Z,16.32
2018-11-11T15:00:15.498Z,16.26
2018-11-11T15:05:21.362Z,15.87
2018-11-11T15:07:49.400Z,15.74
2018-11-11T15:10:17.514Z,15.68
2018-11-11T15:12:45.653Z,15.56
2018-11-11T15:15:17.375Z,15.43
2018-11-11T15:17:46.667Z,15.37
2018-11-11T15:20:15.613Z,15.23
2018-11-11T15:22:44.560Z,15.02
2018-11-11T15:25:14.777Z,14.79
2018-11-11T15:27:45.018Z,14.66
2018-11-11T15:30:16.739Z,14.55
2018-11-11T15:32:45.676Z,14.51
2018-11-11T15:35:15.316Z,14.43
2018-11-11T15:37:43.795Z,14.44
2018-11-11T15:40:14.567Z,14.36
2018-11-11T15:42:42.859Z,14.28
2018-11-11T15:45:13.881Z,14.20
2018-11-11T15:47:42.248Z,13.96
2018-11-11T15:50:14.968Z,13.94
2018-11-11T15:52:46.572Z,13.89
2018-11-11T15:55:16.116Z,13.74
2018-11-11T15:57:45.371Z,13.52
2018-11-11T16:00:18.062Z,13.63
2018-11-11T16:02:47.187Z,13.68
2018-11-11T16:05:17.081Z,13.64
2018-11-11T16:07:47.168Z,13.61
2018-11-11T16:10:21.140Z,13.50
2018-11-11T16:12:50.554Z,13.50
2018-11-11T16:15:22.690Z,13.57
2018-11-11T16:17:54.131Z,13.57
2018-11-11T16:20:24.650Z,13.51
2018-11-11T16:22:55.702Z,13.48
2018-11-11T16:25:25.594Z,13.38
2018-11-11T16:27:55.134Z,13.31
2018-11-11T16:30:28.419Z,13.34
2018-11-11T16:32:58.585Z,13.34
2018-11-11T16:35:28.447Z,13.33
2018-11-11T16:37:57.959Z,13.34
2018-11-11T16:40:29.140Z,13.23
2018-11-11T16:42:59.243Z,13.29
2018-11-11T16:45:29.683Z,13.23
2018-11-11T16:47:59.098Z,13.20
2018-11-11T16:50:30.410Z,13.24
2018-11-11T16:53:00.546Z,13.06
2018-11-11T16:55:30.860Z,13.08
2018-11-11T16:58:00.204Z,12.99
2018-11-11T17:00:32.096Z,12.94
2018-11-11T17:03:02.717Z,12.78
2018-11-11T17:05:33.427Z,12.95
2018-11-11T17:08:03.335Z,13.07
2018-11-11T17:10:33.719Z,13.15
2018-11-11T17:13:05.896Z,13.21
2018-11-11T17:15:36.060Z,13.11
2018-11-11T17:18:05.494Z,13.04
2018-11-11T17:20:35.716Z,12.97
2018-11-11T17:23:06.456Z,12.86
2018-11-11T17:25:35.627Z,12.85
2018-11-11T17:28:05.300Z,12.83
2018-11-11T17:30:35.167Z,12.75
2018-11-11T17:33:04.880Z,12.65
2018-11-11T17:35:34.840Z,12.59
2018-11-11T17:38:05.232Z,12.58
2018-11-11T17:40:34.895Z,12.51
2018-11-11T17:43:05.171Z,12.39
2018-11-11T17:45:35.124Z,12.40
2018-11-11T17:48:05.183Z,12.44
2018-11-11T17:50:35.895Z,12.36
2018-11-11T17:53:06.547Z,12.20
2018-11-11T17:55:36.512Z,11.96
2018-11-11T17:58:06.136Z,11.91
2018-11-11T18:00:35.886Z,11.83
2018-11-11T18:03:06.294Z,11.86
2018-11-11T18:05:35.876Z,11.89
2018-11-11T18:08:06.533Z,11.95
2018-11-11T18:10:36.570Z,11.90
2018-11-11T18:13:06.763Z,11.83
2018-11-11T18:15:36.838Z,11.82
2018-11-11T18:18:06.385Z,11.88
2018-11-11T18:20:34.735Z,11.94
2018-11-11T18:23:03.652Z,11.93
2018-11-11T18:25:31.895Z,12.12
2018-11-11T18:28:00.659Z,12.35
2018-11-11T18:30:30.786Z,12.35
2018-11-11T18:32:59.278Z,12.36
2018-11-11T18:35:27.695Z,12.37
2018-11-11T18:37:56.103Z,12.46
2018-11-11T18:40:26.220Z,12.48
2018-11-11T18:42:54.727Z,12.36
2018-11-11T18:45:24.886Z,12.18
2018-11-11T18:47:54.953Z,12.34
2018-11-11T18:50:26.963Z,12.27
2018-11-11T18:52:56.602Z,12.28
2018-11-11T18:55:25.890Z,12.27
2018-11-11T18:57:54.468Z,12.20
2018-11-11T19:00:26.110Z,11.99
2018-11-11T19:02:55.615Z,11.91
2018-11-11T19:05:24.687Z,11.67
2018-11-11T19:07:53.664Z,11.79
2018-11-11T19:10:24.546Z,11.82
2018-11-11T19:12:55.154Z,11.91
2018-11-11T19:15:24.048Z,11.99
2018-11-11T19:17:54.007Z,11.93
2018-11-11T19:20:23.814Z,11.85
2018-11-11T19:22:53.816Z,11.66
2018-11-11T19:25:24.124Z,11.81
2018-11-11T19:27:54.407Z,11.69
2018-11-11T19:30:25.442Z,11.72
2018-11-11T19:32:55.221Z,11.55
2018-11-11T19:35:24.765Z,11.37
2018-11-11T19:37:55.351Z,11.28
2018-11-11T19:40:26.971Z,11.14
2018-11-11T19:42:57.623Z,10.70
2018-11-11T19:45:28.060Z,10.75
2018-11-11T19:47:57.805Z,10.74
2018-11-11T19:50:28.027Z,10.88
2018-11-11T19:52:57.291Z,10.88
2018-11-11T19:55:26.063Z,10.83
2018-11-11T19:57:54.943Z,10.66
2018-11-11T20:00:27.499Z,10.88
2018-11-11T20:02:57.103Z,10.72
2018-11-11T20:05:25.739Z,10.67
2018-11-11T20:07:55.824Z,10.57
2018-11-11T20:10:25.576Z,10.44
2018-11-11T20:12:54.131Z,10.35
2018-11-11T20:15:23.716Z,10.32
2018-11-11T20:17:51.630Z,10.17
2018-11-11T20:20:20.923Z,10.30
2018-11-11T20:22:49.089Z,10.35
2018-11-11T20:25:18.012Z,10.23
2018-11-11T20:27:46.500Z,10.34
2018-11-11T20:30:21.134Z,10.33
2018-11-11T20:32:49.200Z,10.39
2018-11-11T20:35:19.136Z,10.26
2018-11-11T20:37:47.699Z,10.18
2018-11-11T20:40:17.384Z,10.09
2018-11-11T20:42:46.304Z,10.06
2018-11-11T20:45:16.060Z,10.02
2018-11-11T20:47:44.476Z,9.79
2018-11-11T20:50:14.867Z,9.76
2018-11-11T20:52:43.476Z,9.80
2018-11-11T20:55:12.135Z,9.78
2018-11-11T20:57:40.362Z,9.82
2018-11-11T21:00:11.772Z,9.82
2018-11-11T21:02:40.007Z,9.73
2018-11-11T21:05:09.539Z,9.76
2018-11-11T21:07:37.997Z,9.71
2018-11-11T21:10:07.984Z,9.78
2018-11-11T21:12:36.192Z,9.78
2018-11-11T21:15:05.187Z,9.83
2018-11-11T21:17:33.340Z,9.76
2018-11-11T21:20:01.798Z,9.58
2018-11-11T21:22:29.619Z,9.44
2018-11-11T21:24:57.523Z,9.47
2018-11-11T21:27:25.991Z,9.45
2018-11-11T21:29:54.099Z,9.41
2018-11-11T21:32:22.445Z,9.43
2018-11-11T21:34:50.644Z,9.42
2018-11-11T21:37:19.126Z,9.45
2018-11-11T21:39:47.377Z,9.38
2018-11-11T21:42:15.859Z,9.41
2018-11-11T21:44:44.461Z,9.48
2018-11-11T21:47:12.711Z,9.45
2018-11-11T21:49:41.088Z,9.34
2018-11-11T21:52:09.195Z,9.30
2018-11-11T21:54:37.610Z,9.30
2018-11-11T21:57:05.709Z,9.22
2018-11-11T21:59:33.985Z,9.17
2018-11-11T22:02:01.763Z,9.07
2018-11-11T22:04:29.515Z,8.94
2018-11-11T22:06:57.615Z,8.87
2018-11-11T22:09:26.057Z,8.89
2018-11-11T22:11:54.360Z,9.08
2018-11-11T22:14:22.816Z,9.11
2018-11-11T22:16:51.093Z,9.11
2018-11-11T22:19:19.373Z,9.15
2018-11-11T22:21:47.648Z,9.11
2018-11-11T22:24:15.910Z,8.98
2018-11-11T22:26:44.448Z,8.92
2018-11-11T22:29:12.571Z,8.91
2018-11-11T22:31:40.282Z,9.00
2018-11-11T22:34:08.051Z,8.99
2018-11-11T22:36:35.828Z,8.97
2018-11-11T22:39:04.960Z,8.94
2018-11-11T22:41:32.663Z,8.91
2018-11-11T22:44:00.944Z,8.91
2018-11-11T22:46:29.218Z,8.87
2018-11-11T22:48:57.571Z,8.83
2018-11-11T22:51:25.956Z,8.89
2018-11-11T22:53:54.195Z,8.83
2018-11-11T22:56:22.539Z,8.77
2018-11-11T22:58:50.850Z,8.72
2018-11-11T23:01:20.106Z,8.55
2018-11-11T23:03:48.699Z,8.44
2018-11-11T23:06:17.113Z,8.50
2018-11-11T23:08:45.280Z,8.46
2018-11-11T23:11:13.596Z,8.47
2018-11-11T23:13:41.846Z,8.45
2018-11-11T23:16:10.236Z,8.55
2018-11-11T23:18:38.407Z,8.66
2018-11-11T23:21:06.719Z,8.63
2018-11-11T23:23:35.159Z,8.65
2018-11-11T23:26:03.451Z,8.57
2018-11-11T23:28:31.977Z,8.57
2018-11-11T23:31:00.231Z,8.58
2018-11-11T23:33:28.422Z,8.54
2018-11-11T23:35:56.226Z,8.51
2018-11-11T23:38:24.643Z,8.50
2018-11-11T23:40:52.895Z,8.44
2018-11-11T23:43:21.399Z,8.38
2018-11-11T23:45:49.594Z,8.28
2018-11-11T23:48:17.694Z,8.25
2018-11-11T23:50:45.974Z,8.25
2018-11-11T23:53:14.304Z,8.22
2018-11-11T23:55:42.740Z,8.25
2018-11-11T23:58:11.052Z,8.30
